SLSB/SRJ METAR and TAF weather

Enter ICAO airport designator
Station Type Date Time Source
SLSB METAR 2019/08/04 20:00 UTC NOAA

SLSB 042000Z 10006KT 9999 NSC 25/05 Q1022


Station Type Date Time Source
SLSB Decoded METAR 2019/08/04 20:00 UTC NOAA

San Borja, Bolivia (SLSB) 14-52S 066-52W
Aug 04, 2019 - 04:00 PM EDT / 2019.08.04 2000 UTC
Wind: from the E (100 degrees) at 7 MPH (6 KT):0
Visibility: greater than 7 mile(s):0
Temperature: 77 F (25 C)
Dew Point: 41 F (5 C)
Relative Humidity: 27%
Pressure (altimeter): 30.18 in. Hg (1022 hPa)
ob: SLSB 042000Z 10006KT 9999 NSC 25/05 Q1022
cycle: 20

Station Type Date Time Source
SLSB TAF UTC NOAA

Error!

Example: see airport list